sensor_id;sensor_type;location;lat;lon;timestamp;pressure;altitude;pressure_sealevel;temperature;humidity
41898;BME280;27576;53.366;-1.498;2023-02-02T00:01:50;100814.91;;;6.58;100.00
41898;BME280;27576;53.366;-1.498;2023-02-02T00:04:21;100807.03;;;6.54;100.00
41898;BME280;27576;53.366;-1.498;2023-02-02T00:06:48;100815.84;;;6.60;100.00
41898;BME280;27576;53.366;-1.498;2023-02-02T00:09:15;100784.56;;;6.50;100.00
41898;BME280;27576;53.366;-1.498;2023-02-02T00:11:42;100771.47;;;6.44;100.00
41898;BME280;27576;53.366;-1.498;2023-02-02T00:14:08;100810.69;;;6.60;100.00
41898;BME280;27576;53.366;-1.498;2023-02-02T00:17:02;100801.63;;;6.48;100.00
41898;BME280;27576;53.366;-1.498;2023-02-02T00:19:29;100812.28;;;6.57;100.00
41898;BME280;27576;53.366;-1.498;2023-02-02T00:21:55;100825.09;;;6.55;100.00
41898;BME280;27576;53.366;-1.498;2023-02-02T00:24:21;100818.22;;;6.56;100.00
41898;BME280;27576;53.366;-1.498;2023-02-02T00:26:52;100810.31;;;6.50;100.00
41898;BME280;27576;53.366;-1.498;2023-02-02T00:29:28;100824.88;;;6.49;100.00
41898;BME280;27576;53.366;-1.498;2023-02-02T00:31:54;100824.75;;;6.46;100.00
41898;BME280;27576;53.366;-1.498;2023-02-02T00:34:20;100810.66;;;6.36;100.00
41898;BME280;27576;53.366;-1.498;2023-02-02T00:36:46;100789.75;;;6.27;100.00
41898;BME280;27576;53.366;-1.498;2023-02-02T00:39:18;100818.03;;;6.26;100.00
41898;BME280;27576;53.366;-1.498;2023-02-02T00:41:44;100786.03;;;6.19;100.00
41898;BME280;27576;53.366;-1.498;2023-02-02T00:44:10;100780.84;;;6.18;100.00
41898;BME280;27576;53.366;-1.498;2023-02-02T00:46:54;100807.94;;;6.32;100.00
41898;BME280;27576;53.366;-1.498;2023-02-02T00:49:20;100805.44;;;6.33;100.00
41898;BME280;27576;53.366;-1.498;2023-02-02T00:51:45;100794.91;;;6.27;100.00
41898;BME280;27576;53.366;-1.498;2023-02-02T00:54:10;100780.78;;;6.16;100.00
41898;BME280;27576;53.366;-1.498;2023-02-02T00:56:36;100788.88;;;6.27;100.00
41898;BME280;27576;53.366;-1.498;2023-02-02T00:59:01;100802.69;;;6.29;100.00
41898;BME280;27576;53.366;-1.498;2023-02-02T01:01:26;100795.13;;;6.33;100.00
41898;BME280;27576;53.366;-1.498;2023-02-02T01:03:52;100759.19;;;6.12;100.00
41898;BME280;27576;53.366;-1.498;2023-02-02T01:06:18;100763.69;;;6.18;100.00
41898;BME280;27576;53.366;-1.498;2023-02-02T01:08:43;100790.50;;;6.25;100.00
41898;BME280;27576;53.366;-1.498;2023-02-02T01:11:09;100757.16;;;6.04;100.00
41898;BME280;27576;53.366;-1.498;2023-02-02T01:13:34;100784.44;;;6.23;100.00
41898;BME280;27576;53.366;-1.498;2023-02-02T01:16:00;100795.50;;;6.20;100.00
41898;BME280;27576;53.366;-1.498;2023-02-02T01:18:26;100785.91;;;6.16;100.00
41898;BME280;27576;53.366;-1.498;2023-02-02T01:21:07;100804.44;;;6.30;100.00
41898;BME280;27576;53.366;-1.498;2023-02-02T01:23:33;100790.34;;;6.20;100.00
41898;BME280;27576;53.366;-1.498;2023-02-02T01:26:02;100786.00;;;6.18;100.00
41898;BME280;27576;53.366;-1.498;2023-02-02T01:28:29;100785.28;;;6.22;100.00
41898;BME280;27576;53.366;-1.498;2023-02-02T01:30:55;100803.72;;;6.34;100.00
41898;BME280;27576;53.366;-1.498;2023-02-02T01:33:21;100781.47;;;6.12;100.00
41898;BME280;27576;53.366;-1.498;2023-02-02T01:35:51;100814.03;;;6.34;100.00
41898;BME280;27576;53.366;-1.498;2023-02-02T01:38:17;100825.16;;;6.33;100.00
41898;BME280;27576;53.366;-1.498;2023-02-02T01:40:48;100797.91;;;6.15;100.00
41898;BME280;27576;53.366;-1.498;2023-02-02T01:46:27;100797.06;;;6.17;100.00
41898;BME280;27576;53.366;-1.498;2023-02-02T01:49:14;100827.53;;;6.28;100.00
41898;BME280;27576;53.366;-1.498;2023-02-02T01:51:47;100813.09;;;6.32;100.00
41898;BME280;27576;53.366;-1.498;2023-02-02T01:54:17;100770.31;;;6.11;100.00
41898;BME280;27576;53.366;-1.498;2023-02-02T01:56:58;100768.63;;;6.12;100.00
41898;BME280;27576;53.366;-1.498;2023-02-02T01:59:25;100817.59;;;6.37;100.00
41898;BME280;27576;53.366;-1.498;2023-02-02T02:01:52;100794.16;;;6.30;100.00
41898;BME280;27576;53.366;-1.498;2023-02-02T02:04:19;100803.56;;;6.29;100.00
41898;BME280;27576;53.366;-1.498;2023-02-02T02:06:45;100801.31;;;6.38;100.00
41898;BME280;27576;53.366;-1.498;2023-02-02T02:09:12;100823.94;;;6.47;100.00
41898;BME280;27576;53.366;-1.498;2023-02-02T02:11:39;100815.34;;;6.47;100.00
41898;BME280;27576;53.366;-1.498;2023-02-02T02:14:07;100815.22;;;6.44;100.00
41898;BME280;27576;53.366;-1.498;2023-02-02T02:26:40;100796.00;;;6.58;100.00
41898;BME280;27576;53.366;-1.498;2023-02-02T02:32:05;100792.59;;;6.59;100.00
41898;BME280;27576;53.366;-1.498;2023-02-02T02:39:48;100782.44;;;6.38;100.00
41898;BME280;27576;53.366;-1.498;2023-02-02T02:42:19;100826.75;;;6.53;100.00
41898;BME280;27576;53.366;-1.498;2023-02-02T02:44:48;100826.84;;;6.56;100.00
41898;BME280;27576;53.366;-1.498;2023-02-02T02:47:14;100818.22;;;6.56;100.00
41898;BME280;27576;53.366;-1.498;2023-02-02T02:49:45;100799.19;;;6.51;100.00
41898;BME280;27576;53.366;-1.498;2023-02-02T02:52:11;100778.16;;;6.38;100.00
41898;BME280;27576;53.366;-1.498;2023-02-02T02:54:41;100806.19;;;6.55;100.00
41898;BME280;27576;53.366;-1.498;2023-02-02T02:57:17;100814.84;;;6.57;100.00
41898;BME280;27576;53.366;-1.498;2023-02-02T03:02:51;100822.59;;;6.57;100.00
41898;BME280;27576;53.366;-1.498;2023-02-02T03:08:10;100830.22;;;6.55;100.00
41898;BME280;27576;53.366;-1.498;2023-02-02T03:10:39;100822.41;;;6.52;100.00
41898;BME280;27576;53.366;-1.498;2023-02-02T03:13:08;100823.38;;;6.56;100.00
41898;BME280;27576;53.366;-1.498;2023-02-02T03:15:34;100796.16;;;6.38;100.00
41898;BME280;27576;53.366;-1.498;2023-02-02T03:18:00;100831.94;;;6.55;100.00
41898;BME280;27576;53.366;-1.498;2023-02-02T03:20:25;100825.19;;;6.58;100.00
41898;BME280;27576;53.366;-1.498;2023-02-02T03:22:51;100816.38;;;6.52;100.00
41898;BME280;27576;53.366;-1.498;2023-02-02T03:25:16;100804.00;;;6.42;100.00
41898;BME280;27576;53.366;-1.498;2023-02-02T03:27:42;100831.22;;;6.59;100.00
41898;BME280;27576;53.366;-1.498;2023-02-02T03:30:09;100835.66;;;6.63;100.00
41898;BME280;27576;53.366;-1.498;2023-02-02T03:32:36;100838.38;;;6.68;100.00
41898;BME280;27576;53.366;-1.498;2023-02-02T03:35:02;100807.06;;;6.55;100.00
41898;BME280;27576;53.366;-1.498;2023-02-02T03:37:27;100831.56;;;6.68;100.00
41898;BME280;27576;53.366;-1.498;2023-02-02T03:39:52;100796.44;;;6.46;100.00
41898;BME280;27576;53.366;-1.498;2023-02-02T03:42:18;100826.06;;;6.59;100.00
41898;BME280;27576;53.366;-1.498;2023-02-02T03:44:43;100824.31;;;6.58;100.00
41898;BME280;27576;53.366;-1.498;2023-02-02T03:47:08;100824.94;;;6.51;100.00
41898;BME280;27576;53.366;-1.498;2023-02-02T03:49:34;100812.31;;;6.34;100.00
41898;BME280;27576;53.366;-1.498;2023-02-02T03:51:59;100809.00;;;6.37;100.00
41898;BME280;27576;53.366;-1.498;2023-02-02T03:54:27;100827.06;;;6.38;100.00
41898;BME280;27576;53.366;-1.498;2023-02-02T03:56:52;100825.16;;;6.33;100.00
41898;BME280;27576;53.366;-1.498;2023-02-02T03:59:18;100816.59;;;6.34;100.00
41898;BME280;27576;53.366;-1.498;2023-02-02T04:01:43;100830.75;;;6.45;100.00
41898;BME280;27576;53.366;-1.498;2023-02-02T04:04:08;100832.53;;;6.48;100.00
41898;BME280;27576;53.366;-1.498;2023-02-02T04:06:34;100820.91;;;6.35;100.00
41898;BME280;27576;53.366;-1.498;2023-02-02T04:08:59;100835.03;;;6.45;100.00
41898;BME280;27576;53.366;-1.498;2023-02-02T04:11:24;100815.72;;;6.33;100.00
41898;BME280;27576;53.366;-1.498;2023-02-02T04:13:50;100817.47;;;6.34;100.00
41898;BME280;27576;53.366;-1.498;2023-02-02T04:16:15;100837.34;;;6.38;100.00
41898;BME280;27576;53.366;-1.498;2023-02-02T04:18:40;100801.47;;;6.19;100.00
41898;BME280;27576;53.366;-1.498;2023-02-02T04:21:06;100831.22;;;6.35;100.00
41898;BME280;27576;53.366;-1.498;2023-02-02T04:23:32;100818.19;;;6.30;100.00
41898;BME280;27576;53.366;-1.498;2023-02-02T04:25:58;100831.50;;;6.43;100.00
41898;BME280;27576;53.366;-1.498;2023-02-02T04:28:24;100789.19;;;6.12;100.00
41898;BME280;27576;53.366;-1.498;2023-02-02T04:30:51;100836.41;;;6.36;100.00
41898;BME280;27576;53.366;-1.498;2023-02-02T04:33:18;100806.50;;;6.16;100.00
41898;BME280;27576;53.366;-1.498;2023-02-02T04:35:43;100822.19;;;6.22;100.00
41898;BME280;27576;53.366;-1.498;2023-02-02T04:38:09;100825.66;;;6.24;100.00
41898;BME280;27576;53.366;-1.498;2023-02-02T04:40:42;100818.66;;;6.20;100.00
41898;BME280;27576;53.366;-1.498;2023-02-02T04:43:08;100818.63;;;6.19;100.00
41898;BME280;27576;53.366;-1.498;2023-02-02T04:45:34;100817.50;;;6.12;100.00
41898;BME280;27576;53.366;-1.498;2023-02-02T04:47:59;100828.84;;;6.17;100.00
41898;BME280;27576;53.366;-1.498;2023-02-02T04:50:25;100807.69;;;6.02;100.00
41898;BME280;27576;53.366;-1.498;2023-02-02T04:52:50;100826.75;;;6.07;100.00
41898;BME280;27576;53.366;-1.498;2023-02-02T04:55:16;100846.75;;;6.14;100.00
41898;BME280;27576;53.366;-1.498;2023-02-02T04:57:41;100851.03;;;6.13;100.00
41898;BME280;27576;53.366;-1.498;2023-02-02T05:00:08;100862.09;;;6.12;100.00
41898;BME280;27576;53.366;-1.498;2023-02-02T05:02:36;100842.59;;;5.95;100.00
41898;BME280;27576;53.366;-1.498;2023-02-02T05:05:02;100832.94;;;5.89;100.00
41898;BME280;27576;53.366;-1.498;2023-02-02T05:07:27;100843.72;;;6.02;100.00
41898;BME280;27576;53.366;-1.498;2023-02-02T05:09:52;100841.16;;;6.02;100.00
41898;BME280;27576;53.366;-1.498;2023-02-02T05:12:18;100839.50;;;6.04;100.00
41898;BME280;27576;53.366;-1.498;2023-02-02T05:14:43;100797.41;;;5.81;100.00
41898;BME280;27576;53.366;-1.498;2023-02-02T05:17:08;100840.44;;;6.06;100.00
41898;BME280;27576;53.366;-1.498;2023-02-02T05:19:34;100823.00;;;5.99;100.00
41898;BME280;27576;53.366;-1.498;2023-02-02T05:21:59;100848.94;;;6.05;100.00
41898;BME280;27576;53.366;-1.498;2023-02-02T05:24:24;100854.31;;;6.09;100.00
41898;BME280;27576;53.366;-1.498;2023-02-02T05:26:51;100837.75;;;6.03;100.00
41898;BME280;27576;53.366;-1.498;2023-02-02T05:29:19;100851.91;;;6.14;100.00
41898;BME280;27576;53.366;-1.498;2023-02-02T05:31:44;100847.53;;;6.13;100.00
41898;BME280;27576;53.366;-1.498;2023-02-02T05:34:09;100849.31;;;6.14;100.00
41898;BME280;27576;53.366;-1.498;2023-02-02T05:36:35;100832.00;;;6.10;100.00
41898;BME280;27576;53.366;-1.498;2023-02-02T05:39:00;100838.16;;;6.13;100.00
41898;BME280;27576;53.366;-1.498;2023-02-02T05:41:26;100840.78;;;6.15;100.00
41898;BME280;27576;53.366;-1.498;2023-02-02T05:43:51;100818.75;;;5.99;100.00
41898;BME280;27576;53.366;-1.498;2023-02-02T05:46:16;100833.09;;;6.17;100.00
41898;BME280;27576;53.366;-1.498;2023-02-02T05:48:42;100832.59;;;6.25;100.00
41898;BME280;27576;53.366;-1.498;2023-02-02T05:51:17;100809.56;;;6.06;100.00
41898;BME280;27576;53.366;-1.498;2023-02-02T05:53:44;100828.16;;;6.21;100.00
41898;BME280;27576;53.366;-1.498;2023-02-02T05:56:10;100842.97;;;6.28;100.00
41898;BME280;27576;53.366;-1.498;2023-02-02T05:58:36;100831.53;;;6.20;100.00
41898;BME280;27576;53.366;-1.498;2023-02-02T06:01:01;100835.03;;;6.22;100.00
41898;BME280;27576;53.366;-1.498;2023-02-02T06:03:27;100851.66;;;6.30;100.00
41898;BME280;27576;53.366;-1.498;2023-02-02T06:05:52;100823.50;;;6.12;100.00
41898;BME280;27576;53.366;-1.498;2023-02-02T06:08:18;100850.81;;;6.31;100.00
41898;BME280;27576;53.366;-1.498;2023-02-02T06:10:43;100849.97;;;6.32;100.00
41898;BME280;27576;53.366;-1.498;2023-02-02T06:13:09;100845.50;;;6.27;100.00
41898;BME280;27576;53.366;-1.498;2023-02-02T06:15:34;100853.63;;;6.37;100.00
41898;BME280;27576;53.366;-1.498;2023-02-02T06:18:00;100857.00;;;6.36;100.00
41898;BME280;27576;53.366;-1.498;2023-02-02T06:20:26;100863.13;;;6.40;100.00
41898;BME280;27576;53.366;-1.498;2023-02-02T06:22:51;100863.34;;;6.45;100.00
41898;BME280;27576;53.366;-1.498;2023-02-02T06:25:17;100849.34;;;6.38;100.00
41898;BME280;27576;53.366;-1.498;2023-02-02T06:27:42;100871.25;;;6.51;100.00
41898;BME280;27576;53.366;-1.498;2023-02-02T06:30:11;100866.13;;;6.51;100.00
41898;BME280;27576;53.366;-1.498;2023-02-02T06:32:36;100876.75;;;6.60;100.00
41898;BME280;27576;53.366;-1.498;2023-02-02T06:35:03;100883.53;;;6.58;100.00
41898;BME280;27576;53.366;-1.498;2023-02-02T06:37:28;100851.50;;;6.50;100.00
41898;BME280;27576;53.366;-1.498;2023-02-02T06:39:54;100872.41;;;6.59;100.00
41898;BME280;27576;53.366;-1.498;2023-02-02T06:42:19;100860.22;;;6.53;100.00
41898;BME280;27576;53.366;-1.498;2023-02-02T06:44:44;100879.72;;;6.71;100.00
41898;BME280;27576;53.366;-1.498;2023-02-02T06:47:10;100879.59;;;6.68;100.00
41898;BME280;27576;53.366;-1.498;2023-02-02T06:49:35;100902.56;;;6.85;100.00
41898;BME280;27576;53.366;-1.498;2023-02-02T06:52:00;100899.28;;;6.89;100.00
41898;BME280;27576;53.366;-1.498;2023-02-02T06:54:26;100882.78;;;6.84;100.00
41898;BME280;27576;53.366;-1.498;2023-02-02T06:56:51;100888.25;;;6.94;100.00
41898;BME280;27576;53.366;-1.498;2023-02-02T06:59:17;100853.31;;;6.76;100.00
41898;BME280;27576;53.366;-1.498;2023-02-02T07:01:42;100875.53;;;6.98;100.00
41898;BME280;27576;53.366;-1.498;2023-02-02T07:04:07;100858.91;;;6.88;100.00
41898;BME280;27576;53.366;-1.498;2023-02-02T07:06:34;100862.38;;;6.91;100.00
41898;BME280;27576;53.366;-1.498;2023-02-02T07:08:59;100851.06;;;6.85;100.00
41898;BME280;27576;53.366;-1.498;2023-02-02T07:11:25;100858.94;;;6.90;100.00
41898;BME280;27576;53.366;-1.498;2023-02-02T07:13:50;100863.59;;;7.00;100.00
41898;BME280;27576;53.366;-1.498;2023-02-02T07:16:17;100869.50;;;6.98;100.00
41898;BME280;27576;53.366;-1.498;2023-02-02T07:18:43;100883.53;;;7.06;100.00
41898;BME280;27576;53.366;-1.498;2023-02-02T07:21:19;100898.44;;;7.14;100.00
41898;BME280;27576;53.366;-1.498;2023-02-02T07:23:45;100896.63;;;7.12;100.00
41898;BME280;27576;53.366;-1.498;2023-02-02T07:26:11;100894.97;;;7.14;100.00
41898;BME280;27576;53.366;-1.498;2023-02-02T07:28:38;100914.16;;;7.22;100.00
41898;BME280;27576;53.366;-1.498;2023-02-02T07:31:15;100907.25;;;7.21;100.00
41898;BME280;27576;53.366;-1.498;2023-02-02T07:33:43;100892.25;;;7.09;100.00
41898;BME280;27576;53.366;-1.498;2023-02-02T07:36:13;100885.28;;;7.07;100.00
41898;BME280;27576;53.366;-1.498;2023-02-02T07:38:40;100905.50;;;7.20;100.00
41898;BME280;27576;53.366;-1.498;2023-02-02T07:41:06;100866.03;;;6.96;100.00
41898;BME280;27576;53.366;-1.498;2023-02-02T07:43:31;100884.47;;;7.08;100.00
41898;BME280;27576;53.366;-1.498;2023-02-02T07:46:00;100884.56;;;7.11;100.00
41898;BME280;27576;53.366;-1.498;2023-02-02T07:48:30;100893.59;;;7.24;100.00
41898;BME280;27576;53.366;-1.498;2023-02-02T07:51:07;100891.91;;;7.24;100.00
41898;BME280;27576;53.366;-1.498;2023-02-02T07:53:33;100899.56;;;7.23;100.00
41898;BME280;27576;53.366;-1.498;2023-02-02T07:58:34;100904.09;;;7.30;100.00
41898;BME280;27576;53.366;-1.498;2023-02-02T08:01:04;100862.31;;;7.13;100.00
41898;BME280;27576;53.366;-1.498;2023-02-02T08:03:30;100879.63;;;7.17;100.00
41898;BME280;27576;53.366;-1.498;2023-02-02T08:05:56;100892.09;;;7.30;100.00
41898;BME280;27576;53.366;-1.498;2023-02-02T08:08:22;100823.63;;;6.87;100.00
41898;BME280;27576;53.366;-1.498;2023-02-02T08:10:51;100904.97;;;7.30;100.00
41898;BME280;27576;53.366;-1.498;2023-02-02T08:13:17;100896.44;;;7.31;100.00
41898;BME280;27576;53.366;-1.498;2023-02-02T08:15:42;100863.13;;;7.12;100.00
41898;BME280;27576;53.366;-1.498;2023-02-02T08:18:07;100894.47;;;7.24;100.00
41898;BME280;27576;53.366;-1.498;2023-02-02T08:20:33;100899.78;;;7.29;100.00
41898;BME280;27576;53.366;-1.498;2023-02-02T08:22:59;100885.75;;;7.21;100.00
41898;BME280;27576;53.366;-1.498;2023-02-02T08:25:25;100901.50;;;7.28;100.00
41898;BME280;27576;53.366;-1.498;2023-02-02T08:27:55;100876.09;;;7.15;100.00
41898;BME280;27576;53.366;-1.498;2023-02-02T08:30:23;100902.41;;;7.30;100.00
41898;BME280;27576;53.366;-1.498;2023-02-02T08:32:48;100901.50;;;7.28;100.00
41898;BME280;27576;53.366;-1.498;2023-02-02T08:35:14;100871.13;;;7.20;100.00
41898;BME280;27576;53.366;-1.498;2023-02-02T08:37:39;100895.63;;;7.32;100.00
41898;BME280;27576;53.366;-1.498;2023-02-02T08:40:05;100882.50;;;7.26;100.00
41898;BME280;27576;53.366;-1.498;2023-02-02T08:42:32;100884.22;;;7.26;100.00
41898;BME280;27576;53.366;-1.498;2023-02-02T08:44:57;100899.28;;;7.39;100.00
41898;BME280;27576;53.366;-1.498;2023-02-02T08:47:23;100882.63;;;7.29;100.00
41898;BME280;27576;53.366;-1.498;2023-02-02T08:49:48;100921.94;;;7.49;100.00
41898;BME280;27576;53.366;-1.498;2023-02-02T08:52:13;100895.25;;;7.47;100.00
41898;BME280;27576;53.366;-1.498;2023-02-02T08:54:39;100872.56;;;7.37;100.00
41898;BME280;27576;53.366;-1.498;2023-02-02T08:57:07;100908.56;;;7.59;100.00
41898;BME280;27576;53.366;-1.498;2023-02-02T08:59:32;100905.03;;;7.57;100.00
41898;BME280;27576;53.366;-1.498;2023-02-02T09:01:58;100911.06;;;7.58;100.00
41898;BME280;27576;53.366;-1.498;2023-02-02T09:04:23;100896.28;;;7.52;100.00
41898;BME280;27576;53.366;-1.498;2023-02-02T09:06:49;100881.53;;;7.48;100.00
41898;BME280;27576;53.366;-1.498;2023-02-02T09:09:15;100897.28;;;7.57;100.00
41898;BME280;27576;53.366;-1.498;2023-02-02T09:11:41;100920.09;;;7.71;100.00
41898;BME280;27576;53.366;-1.498;2023-02-02T09:14:07;100893.72;;;7.54;100.00
41898;BME280;27576;53.366;-1.498;2023-02-02T09:16:33;100916.88;;;7.78;100.00
41898;BME280;27576;53.366;-1.498;2023-02-02T09:18:59;100895.03;;;7.67;100.00
41898;BME280;27576;53.366;-1.498;2023-02-02T09:21:24;100928.25;;;7.84;100.00
41898;BME280;27576;53.366;-1.498;2023-02-02T09:23:51;100911.66;;;7.76;100.00
41898;BME280;27576;53.366;-1.498;2023-02-02T09:26:26;100941.28;;;7.87;100.00
41898;BME280;27576;53.366;-1.498;2023-02-02T09:28:57;100937.03;;;7.90;100.00
41898;BME280;27576;53.366;-1.498;2023-02-02T09:31:24;100923.06;;;7.83;100.00
41898;BME280;27576;53.366;-1.498;2023-02-02T09:33:50;100925.69;;;7.84;100.00
41898;BME280;27576;53.366;-1.498;2023-02-02T09:36:17;100950.97;;;7.95;100.00
41898;BME280;27576;53.366;-1.498;2023-02-02T09:38:44;100913.56;;;7.82;100.00
41898;BME280;27576;53.366;-1.498;2023-02-02T09:55:49;100923.00;;;8.08;100.00
41898;BME280;27576;53.366;-1.498;2023-02-02T09:58:23;100927.31;;;8.09;100.00
41898;BME280;27576;53.366;-1.498;2023-02-02T10:00:54;100918.03;;;8.15;100.00
41898;BME280;27576;53.366;-1.498;2023-02-02T10:08:46;100931.22;;;8.24;100.00
41898;BME280;27576;53.366;-1.498;2023-02-02T10:11:40;100918.69;;;8.07;100.00
41898;BME280;27576;53.366;-1.498;2023-02-02T10:16:45;100931.06;;;8.18;100.00
41898;BME280;27576;53.366;-1.498;2023-02-02T10:19:14;100868.75;;;7.78;100.00
41898;BME280;27576;53.366;-1.498;2023-02-02T10:24:19;100941.63;;;8.25;100.00
41898;BME280;27576;53.366;-1.498;2023-02-02T10:26:56;100936.22;;;8.18;100.00
41898;BME280;27576;53.366;-1.498;2023-02-02T10:32:14;100972.78;;;8.31;100.00
41898;BME280;27576;53.366;-1.498;2023-02-02T10:35:26;100974.50;;;8.32;100.00
41898;BME280;27576;53.366;-1.498;2023-02-02T10:38:32;100977.16;;;8.34;100.00
41898;BME280;27576;53.366;-1.498;2023-02-02T10:46:45;100948.69;;;8.32;100.00
41898;BME280;27576;53.366;-1.498;2023-02-02T10:51:37;100968.22;;;8.50;100.00
41898;BME280;27576;53.366;-1.498;2023-02-02T10:54:19;100948.09;;;8.40;100.00
41898;BME280;27576;53.366;-1.498;2023-02-02T10:56:51;100967.56;;;8.57;100.00
41898;BME280;27576;53.366;-1.498;2023-02-02T10:59:26;100952.56;;;8.45;100.00
41898;BME280;27576;53.366;-1.498;2023-02-02T11:01:54;100975.31;;;8.57;100.00
41898;BME280;27576;53.366;-1.498;2023-02-02T11:04:20;100961.22;;;8.47;100.00
41898;BME280;27576;53.366;-1.498;2023-02-02T11:07:04;100976.06;;;8.53;100.00
41898;BME280;27576;53.366;-1.498;2023-02-02T11:09:31;100963.91;;;8.50;100.00
41898;BME280;27576;53.366;-1.498;2023-02-02T11:12:08;100957.66;;;8.42;100.00
41898;BME280;27576;53.366;-1.498;2023-02-02T11:14:46;100973.47;;;8.53;100.00
41898;BME280;27576;53.366;-1.498;2023-02-02T11:17:23;100955.28;;;8.50;100.00
41898;BME280;27576;53.366;-1.498;2023-02-02T11:19:52;100956.09;;;8.49;100.00
41898;BME280;27576;53.366;-1.498;2023-02-02T11:24:56;100950.25;;;8.54;100.00
41898;BME280;27576;53.366;-1.498;2023-02-02T11:27:25;100914.63;;;8.43;100.00
41898;BME280;27576;53.366;-1.498;2023-02-02T11:29:56;100944.47;;;8.63;100.00
41898;BME280;27576;53.366;-1.498;2023-02-02T11:32:30;100955.81;;;8.68;100.00
41898;BME280;27576;53.366;-1.498;2023-02-02T11:37:29;100915.81;;;8.54;100.00
41898;BME280;27576;53.366;-1.498;2023-02-02T11:42:49;100949.00;;;8.70;100.00
41898;BME280;27576;53.366;-1.498;2023-02-02T11:45:16;100919.34;;;8.57;100.00
41898;BME280;27576;53.366;-1.498;2023-02-02T11:47:43;100921.94;;;8.57;100.00
41898;BME280;27576;53.366;-1.498;2023-02-02T11:50:19;100931.81;;;8.72;100.00
41898;BME280;27576;53.366;-1.498;2023-02-02T11:52:47;100936.97;;;8.72;100.00
41898;BME280;27576;53.366;-1.498;2023-02-02T11:55:17;100940.50;;;8.74;100.00
41898;BME280;27576;53.366;-1.498;2023-02-02T11:58:18;100931.91;;;8.75;100.00
41898;BME280;27576;53.366;-1.498;2023-02-02T12:00:48;100915.38;;;8.69;100.00
41898;BME280;27576;53.366;-1.498;2023-02-02T12:03:34;100934.56;;;8.77;100.00
41898;BME280;27576;53.366;-1.498;2023-02-02T12:06:17;100902.31;;;8.64;100.00
41898;BME280;27576;53.366;-1.498;2023-02-02T12:08:42;100895.41;;;8.63;100.00
41898;BME280;27576;53.366;-1.498;2023-02-02T12:11:23;100914.63;;;8.73;100.00
41898;BME280;27576;53.366;-1.498;2023-02-02T12:13:58;100909.59;;;8.77;100.00
41898;BME280;27576;53.366;-1.498;2023-02-02T12:16:49;100893.28;;;8.80;100.00
41898;BME280;27576;53.366;-1.498;2023-02-02T12:24:33;100886.44;;;8.80;100.00
41898;BME280;27576;53.366;-1.498;2023-02-02T12:33:00;100884.72;;;8.81;100.00
41898;BME280;27576;53.366;-1.498;2023-02-02T12:44:00;100860.22;;;8.68;100.00
41898;BME280;27576;53.366;-1.498;2023-02-02T12:46:46;100883.03;;;8.83;100.00
41898;BME280;27576;53.366;-1.498;2023-02-02T12:54:59;100859.88;;;8.86;100.00
41898;BME280;27576;53.366;-1.498;2023-02-02T13:00:39;100846.56;;;8.72;100.00
41898;BME280;27576;53.366;-1.498;2023-02-02T13:08:56;100849.56;;;8.88;100.00
41898;BME280;27576;53.366;-1.498;2023-02-02T13:11:47;100824.22;;;8.74;100.00
41898;BME280;27576;53.366;-1.498;2023-02-02T13:14:20;100817.25;;;8.72;100.00
41898;BME280;27576;53.366;-1.498;2023-02-02T13:16:53;100848.75;;;8.89;100.00
41898;BME280;27576;53.366;-1.498;2023-02-02T13:21:57;100834.78;;;8.82;100.00
41898;BME280;27576;53.366;-1.498;2023-02-02T13:24:29;100826.91;;;8.77;100.00
41898;BME280;27576;53.366;-1.498;2023-02-02T13:26:57;100834.03;;;8.86;100.00
41898;BME280;27576;53.366;-1.498;2023-02-02T13:32:35;100824.47;;;8.83;100.00
41898;BME280;27576;53.366;-1.498;2023-02-02T13:35:12;100827.13;;;8.87;100.00
41898;BME280;27576;53.366;-1.498;2023-02-02T13:37:59;100827.97;;;8.85;100.00
41898;BME280;27576;53.366;-1.498;2023-02-02T13:45:48;100830.47;;;8.82;100.00
41898;BME280;27576;53.366;-1.498;2023-02-02T14:02:59;100845.97;;;8.82;100.00
41898;BME280;27576;53.366;-1.498;2023-02-02T14:05:37;100836.50;;;8.81;100.00
41898;BME280;27576;53.366;-1.498;2023-02-02T14:08:18;100810.00;;;8.57;100.00
41898;BME280;27576;53.366;-1.498;2023-02-02T14:13:24;100870.84;;;8.77;100.00
41898;BME280;27576;53.366;-1.498;2023-02-02T14:16:46;100847.59;;;8.79;100.00
41898;BME280;27576;53.366;-1.498;2023-02-02T14:19:45;100871.78;;;8.81;100.00
41898;BME280;27576;53.366;-1.498;2023-02-02T14:47:46;100877.97;;;8.88;100.00
41898;BME280;27576;53.366;-1.498;2023-02-02T14:50:23;100855.44;;;8.82;100.00
41898;BME280;27576;53.366;-1.498;2023-02-02T14:53:00;100859.03;;;8.87;100.00
41898;BME280;27576;53.366;-1.498;2023-02-02T14:55:27;100840.03;;;8.85;100.00
41898;BME280;27576;53.366;-1.498;2023-02-02T14:58:01;100850.38;;;8.85;100.00
41898;BME280;27576;53.366;-1.498;2023-02-02T15:00:31;100861.66;;;8.89;100.00
41898;BME280;27576;53.366;-1.498;2023-02-02T15:03:33;100858.25;;;8.90;100.00
41898;BME280;27576;53.366;-1.498;2023-02-02T15:06:24;100855.34;;;8.79;100.00
41898;BME280;27576;53.366;-1.498;2023-02-02T15:17:04;100895.41;;;8.95;100.00
41898;BME280;27576;53.366;-1.498;2023-02-02T15:19:34;100884.19;;;8.93;100.00
41898;BME280;27576;53.366;-1.498;2023-02-02T15:22:34;100891.13;;;8.95;100.00
41898;BME280;27576;53.366;-1.498;2023-02-02T15:25:12;100891.22;;;9.00;100.00
41898;BME280;27576;53.366;-1.498;2023-02-02T15:27:48;100858.06;;;8.83;100.00
41898;BME280;27576;53.366;-1.498;2023-02-02T15:30:16;100870.22;;;8.88;100.00
41898;BME280;27576;53.366;-1.498;2023-02-02T15:32:42;100889.69;;;9.06;100.00
41898;BME280;27576;53.366;-1.498;2023-02-02T15:35:16;100890.44;;;9.02;100.00
41898;BME280;27576;53.366;-1.498;2023-02-02T15:37:47;100859.84;;;8.84;100.00
41898;BME280;27576;53.366;-1.498;2023-02-02T15:40:20;100901.97;;;9.14;100.00
41898;BME280;27576;53.366;-1.498;2023-02-02T15:42:54;100911.47;;;9.15;100.00